createdAt,value
2019-04-04T00:01:57.179Z,24.40
2019-04-04T00:04:26.739Z,24.20
2019-04-04T00:06:58.133Z,24.37
2019-04-04T00:09:31.194Z,23.40
2019-04-04T00:12:02.553Z,24.30
2019-04-04T00:14:33.899Z,25.90
2019-04-04T00:17:03.645Z,25.23
2019-04-04T00:19:35.993Z,24.53
2019-04-04T00:22:05.587Z,24.10
2019-04-04T00:24:39.344Z,23.33
2019-04-04T00:27:08.189Z,26.63
2019-04-04T00:29:37.740Z,26.47
2019-04-04T00:32:07.413Z,26.50
2019-04-04T00:34:40.022Z,25.97
2019-04-04T00:37:09.931Z,23.43
2019-04-04T00:39:40.420Z,24.30
2019-04-04T00:42:10.379Z,24.97
2019-04-04T00:44:39.930Z,24.60
2019-04-04T00:47:09.594Z,24.27
2019-04-04T00:49:39.088Z,25.73
2019-04-04T00:52:10.303Z,24.33
2019-04-04T00:54:40.151Z,23.93
2019-04-04T00:57:09.868Z,25.17
2019-04-04T00:59:39.384Z,23.53
2019-04-04T01:02:09.282Z,22.90
2019-04-04T01:04:38.563Z,23.37
2019-04-04T01:07:11.064Z,24.33
2019-04-04T01:09:43.071Z,23.80
2019-04-04T01:12:13.053Z,24.07
2019-04-04T01:14:42.523Z,25.93
2019-04-04T01:17:12.067Z,23.77
2019-04-04T01:19:41.818Z,24.40
2019-04-04T01:22:11.466Z,23.17
2019-04-04T01:24:40.940Z,23.97
2019-04-04T01:27:10.522Z,24.13
2019-04-04T01:29:40.863Z,24.53
2019-04-04T01:32:11.120Z,23.67
2019-04-04T01:34:40.811Z,24.13
2019-04-04T01:37:10.758Z,23.70
2019-04-04T01:39:40.230Z,23.77
2019-04-04T01:42:09.979Z,23.10
2019-04-04T01:44:40.151Z,24.80
2019-04-04T01:47:10.801Z,22.90
2019-04-04T01:49:40.512Z,23.47
2019-04-04T01:52:09.996Z,28.37
2019-04-04T01:54:42.627Z,27.07
2019-04-04T01:57:12.167Z,27.03
2019-04-04T01:59:41.974Z,24.87
2019-04-04T02:02:12.950Z,24.97
2019-04-04T02:04:42.496Z,24.43
2019-04-04T02:07:12.181Z,25.07
2019-04-04T02:09:49.080Z,22.77
2019-04-04T02:12:18.788Z,23.77
2019-04-04T02:14:48.498Z,23.07
2019-04-04T02:17:18.195Z,21.83
2019-04-04T02:19:48.125Z,24.73
2019-04-04T02:22:17.814Z,24.17
2019-04-04T02:24:47.750Z,23.30
2019-04-04T02:27:17.439Z,23.77
2019-04-04T02:29:46.935Z,23.60
2019-04-04T02:32:18.294Z,22.90
2019-04-04T02:34:48.229Z,23.33
2019-04-04T02:37:21.362Z,23.60
2019-04-04T02:39:51.341Z,23.40
2019-04-04T02:42:22.227Z,22.97
2019-04-04T02:44:54.665Z,22.80
2019-04-04T02:47:24.774Z,23.43
2019-04-04T02:49:54.480Z,22.40
2019-04-04T02:52:26.209Z,21.97
2019-04-04T02:54:58.223Z,23.10
2019-04-04T02:57:27.067Z,23.27
2019-04-04T02:59:56.802Z,23.70
2019-04-04T03:02:26.496Z,22.67
2019-04-04T03:04:58.734Z,22.23
2019-04-04T03:07:30.941Z,22.20
2019-04-04T03:09:59.291Z,22.47
2019-04-04T03:12:29.255Z,23.80
2019-04-04T03:14:58.804Z,23.77
2019-04-04T03:17:33.905Z,23.30
2019-04-04T03:20:03.321Z,22.70
2019-04-04T03:22:34.645Z,24.30
2019-04-04T03:25:04.162Z,24.73
2019-04-04T03:27:33.826Z,22.47
2019-04-04T03:30:03.354Z,25.27
2019-04-04T03:32:33.033Z,24.33
2019-04-04T03:35:02.952Z,25.07
2019-04-04T03:37:32.697Z,24.50
2019-04-04T03:40:02.405Z,24.17
2019-04-04T03:42:34.189Z,24.33
2019-04-04T03:45:03.858Z,24.47
2019-04-04T03:47:33.376Z,25.30
2019-04-04T03:50:03.069Z,25.70
2019-04-04T03:52:33.005Z,24.93
2019-04-04T03:55:02.770Z,24.30
2019-04-04T03:57:32.244Z,23.77
2019-04-04T04:00:05.903Z,24.47
2019-04-04T04:02:34.480Z,28.63
2019-04-04T04:05:04.224Z,25.13
2019-04-04T04:07:35.154Z,27.23
2019-04-04T04:10:05.065Z,26.57
2019-04-04T04:12:34.792Z,24.60
2019-04-04T04:15:04.507Z,22.93
2019-04-04T04:17:36.194Z,23.17
2019-04-04T04:20:05.757Z,22.70
2019-04-04T04:22:37.319Z,23.47
2019-04-04T04:25:07.202Z,24.03
2019-04-04T04:27:37.130Z,29.53
2019-04-04T04:30:10.047Z,28.70
2019-04-04T04:32:39.845Z,34.87
2019-04-04T04:35:11.785Z,50.03
2019-04-04T04:37:41.719Z,28.00
2019-04-04T04:40:15.069Z,30.70
2019-04-04T04:42:46.251Z,26.77
2019-04-04T04:45:15.972Z,39.17
2019-04-04T04:47:45.894Z,25.80
2019-04-04T04:50:15.807Z,30.87
2019-04-04T04:52:47.358Z,34.00
2019-04-04T04:55:19.104Z,30.23
2019-04-04T04:57:48.651Z,25.37
2019-04-04T05:00:18.150Z,26.43
2019-04-04T05:02:49.044Z,24.70
2019-04-04T05:05:20.045Z,26.50
2019-04-04T05:07:49.888Z,25.73
2019-04-04T05:10:21.948Z,26.80
2019-04-04T05:12:53.031Z,25.93
2019-04-04T05:15:23.347Z,28.10
2019-04-04T05:17:53.052Z,25.87
2019-04-04T05:20:23.122Z,25.87
2019-04-04T05:22:53.889Z,25.43
2019-04-04T05:25:23.804Z,23.63
2019-04-04T05:27:55.305Z,25.57
2019-04-04T05:30:24.698Z,26.50
2019-04-04T05:32:56.552Z,21.67
2019-04-04T05:35:26.172Z,24.17
2019-04-04T05:37:55.843Z,22.40
2019-04-04T05:40:26.436Z,22.87
2019-04-04T05:42:57.122Z,22.00
2019-04-04T05:45:26.631Z,21.70
2019-04-04T05:47:59.875Z,19.53
2019-04-04T05:50:29.385Z,19.23
2019-04-04T05:52:59.059Z,20.27
2019-04-04T05:55:28.538Z,19.83
2019-04-04T05:57:58.829Z,20.17
2019-04-04T06:00:33.477Z,20.30
2019-04-04T06:03:03.025Z,20.07
2019-04-04T06:05:35.341Z,18.67
2019-04-04T06:08:07.862Z,18.93
2019-04-04T06:10:36.647Z,18.53
2019-04-04T06:13:06.758Z,18.57
2019-04-04T06:15:36.443Z,19.43
2019-04-04T06:18:10.950Z,18.90
2019-04-04T06:20:38.747Z,19.57
2019-04-04T06:23:08.446Z,19.33
2019-04-04T06:25:37.443Z,18.50
2019-04-04T06:28:11.620Z,19.70
2019-04-04T06:30:43.447Z,17.67
2019-04-04T06:33:11.587Z,19.37
2019-04-04T06:35:41.310Z,19.03
2019-04-04T06:38:13.581Z,24.73
2019-04-04T06:40:43.402Z,36.20
2019-04-04T06:43:15.150Z,29.90
2019-04-04T06:45:46.537Z,18.43
2019-04-04T06:48:16.183Z,18.17
2019-04-04T06:50:45.903Z,16.70
2019-04-04T06:53:18.030Z,16.20
2019-04-04T06:55:49.039Z,17.90
2019-04-04T06:58:18.946Z,15.57
2019-04-04T07:00:50.295Z,14.40
2019-04-04T07:03:20.000Z,16.07
2019-04-04T07:05:49.687Z,14.80
2019-04-04T07:08:19.623Z,14.67
2019-04-04T07:10:57.736Z,15.27
2019-04-04T07:13:22.420Z,15.00
2019-04-04T07:16:06.064Z,14.43
2019-04-04T07:18:25.663Z,14.00
2019-04-04T07:20:59.798Z,14.50
2019-04-04T07:23:30.431Z,13.67
2019-04-04T07:26:00.495Z,12.43
2019-04-04T07:28:31.002Z,13.53
2019-04-04T07:31:01.778Z,11.87
2019-04-04T07:33:31.887Z,12.77
2019-04-04T07:36:01.405Z,14.20
2019-04-04T07:38:31.082Z,12.10
2019-04-04T07:41:02.252Z,12.07
2019-04-04T07:43:31.751Z,13.07
2019-04-04T07:46:15.630Z,11.87
2019-04-04T07:48:34.642Z,11.63
2019-04-04T07:51:04.163Z,10.77
2019-04-04T07:53:36.432Z,12.20
2019-04-04T07:56:10.183Z,12.50
2019-04-04T07:58:39.851Z,11.13
2019-04-04T08:01:09.544Z,11.20
2019-04-04T08:03:40.722Z,11.80
2019-04-04T08:06:11.641Z,12.47
2019-04-04T08:08:41.325Z,11.53
2019-04-04T08:11:13.337Z,11.23
2019-04-04T08:13:42.422Z,10.53
2019-04-04T08:16:20.328Z,10.03
2019-04-04T08:18:50.006Z,10.07
2019-04-04T08:21:19.745Z,9.70
2019-04-04T08:23:49.658Z,9.50
2019-04-04T08:26:21.821Z,10.87
2019-04-04T08:28:51.746Z,9.73
2019-04-04T08:31:21.041Z,9.00
2019-04-04T08:33:50.564Z,10.70
2019-04-04T08:36:20.259Z,9.20
2019-04-04T08:38:52.426Z,9.17
2019-04-04T08:41:23.343Z,10.10
2019-04-04T08:43:55.936Z,9.20
2019-04-04T08:46:25.481Z,9.20
2019-04-04T08:48:56.802Z,9.23
2019-04-04T08:51:30.977Z,9.43
2019-04-04T08:54:02.557Z,8.93
2019-04-04T08:56:34.381Z,9.83
2019-04-04T08:59:05.855Z,9.43
2019-04-04T09:01:35.582Z,10.17
2019-04-04T09:04:05.121Z,9.57
2019-04-04T09:06:35.008Z,10.87
2019-04-04T09:09:06.560Z,9.47
2019-04-04T09:11:36.120Z,9.63
2019-04-04T09:14:08.215Z,8.97
2019-04-04T09:16:43.266Z,9.13
2019-04-04T09:19:12.973Z,8.70
2019-04-04T09:21:44.132Z,9.67
2019-04-04T09:24:13.657Z,9.03
2019-04-04T09:26:45.358Z,8.77
2019-04-04T09:29:15.305Z,9.43
2019-04-04T09:31:44.827Z,8.90
2019-04-04T09:34:14.732Z,10.50
2019-04-04T09:36:44.423Z,9.23
2019-04-04T09:39:13.957Z,8.60
2019-04-04T09:41:43.641Z,7.90
2019-04-04T09:44:14.779Z,7.97
2019-04-04T09:46:44.369Z,8.17
2019-04-04T09:49:13.983Z,8.70
2019-04-04T09:51:44.518Z,8.37
2019-04-04T09:54:14.059Z,8.27
2019-04-04T09:56:45.606Z,7.90
2019-04-04T09:59:15.128Z,8.40
2019-04-04T10:01:48.144Z,8.70
2019-04-04T10:04:17.788Z,8.53
2019-04-04T10:06:47.492Z,8.43
2019-04-04T10:09:17.233Z,8.80
2019-04-04T10:11:48.754Z,8.57
2019-04-04T10:14:18.465Z,8.37
2019-04-04T10:16:48.025Z,7.90
2019-04-04T10:19:18.725Z,8.47
2019-04-04T10:21:49.659Z,8.27
2019-04-04T10:24:21.626Z,9.13
2019-04-04T10:26:51.317Z,8.07
2019-04-04T10:29:23.499Z,8.77
2019-04-04T10:31:53.193Z,8.13
2019-04-04T10:34:23.543Z,8.30
2019-04-04T10:36:53.277Z,8.47
2019-04-04T10:39:29.351Z,8.67
2019-04-04T10:41:59.022Z,8.43
2019-04-04T10:44:28.321Z,7.93
2019-04-04T10:46:58.988Z,7.50
2019-04-04T10:49:28.554Z,8.27
2019-04-04T10:52:00.279Z,8.17
2019-04-04T10:54:30.025Z,8.30
2019-04-04T10:56:59.718Z,7.70
2019-04-04T10:59:32.159Z,7.23
2019-04-04T11:02:02.229Z,7.97
2019-04-04T11:04:32.973Z,7.70
2019-04-04T11:07:02.673Z,8.30
2019-04-04T11:09:41.766Z,7.57
2019-04-04T11:12:04.767Z,7.63
2019-04-04T11:14:34.264Z,7.70
2019-04-04T11:17:05.193Z,6.90
2019-04-04T11:19:34.895Z,7.70
2019-04-04T11:22:04.327Z,6.67
2019-04-04T11:24:36.378Z,8.13
2019-04-04T11:27:06.282Z,7.10
2019-04-04T11:29:39.532Z,7.77
2019-04-04T11:32:09.440Z,8.00
2019-04-04T11:34:52.577Z,7.87
2019-04-04T11:37:17.267Z,8.03
2019-04-04T11:39:54.502Z,7.73
2019-04-04T11:42:18.989Z,6.90
2019-04-04T11:44:47.962Z,7.83
2019-04-04T11:47:17.625Z,7.60
2019-04-04T11:49:49.580Z,7.03
2019-04-04T11:52:18.514Z,8.53
2019-04-04T11:54:57.978Z,7.23
2019-04-04T11:57:27.004Z,6.73
2019-04-04T11:59:56.042Z,7.27
2019-04-04T12:02:28.132Z,7.13
2019-04-04T12:04:58.010Z,7.10
2019-04-04T12:07:27.848Z,7.03
2019-04-04T12:10:06.780Z,6.77
2019-04-04T12:12:28.706Z,6.47
2019-04-04T12:14:58.471Z,7.13
2019-04-04T12:17:28.138Z,7.53
2019-04-04T12:19:57.660Z,7.53
2019-04-04T12:22:29.415Z,6.80
2019-04-04T12:25:01.362Z,8.30
2019-04-04T12:27:33.742Z,8.07
2019-04-04T12:30:03.450Z,6.70
2019-04-04T12:32:35.041Z,6.60
2019-04-04T12:35:04.731Z,6.53
2019-04-04T12:37:34.420Z,6.73
2019-04-04T12:40:04.126Z,6.47
2019-04-04T12:42:35.991Z,7.00
2019-04-04T12:45:06.077Z,6.37
2019-04-04T12:47:35.727Z,7.87
2019-04-04T12:50:06.297Z,7.80
2019-04-04T12:52:36.997Z,7.80
2019-04-04T12:55:07.609Z,7.27
2019-04-04T12:57:42.919Z,6.57
2019-04-04T13:00:13.077Z,6.67
2019-04-04T13:02:42.384Z,6.87
2019-04-04T13:05:19.087Z,7.20
2019-04-04T13:07:48.749Z,7.20
2019-04-04T13:10:18.684Z,6.43
2019-04-04T13:12:55.579Z,7.07
2019-04-04T13:15:27.172Z,6.60
2019-04-04T13:17:56.663Z,6.27
2019-04-04T13:20:26.758Z,6.30
2019-04-04T13:22:56.485Z,6.57
2019-04-04T13:25:28.508Z,7.27
2019-04-04T13:28:01.262Z,6.83
2019-04-04T13:30:30.924Z,6.23
2019-04-04T13:33:00.835Z,6.60
2019-04-04T13:35:30.407Z,7.50
2019-04-04T13:38:01.640Z,6.33
2019-04-04T13:40:31.179Z,7.30
2019-04-04T13:43:01.113Z,6.07
2019-04-04T13:45:30.600Z,6.07
2019-04-04T13:48:05.555Z,6.47
2019-04-04T13:50:38.191Z,6.73
2019-04-04T13:53:07.796Z,7.10
2019-04-04T13:55:39.323Z,6.27
2019-04-04T13:58:08.563Z,6.80
2019-04-04T14:00:38.717Z,6.73
2019-04-04T14:03:08.427Z,6.27
2019-04-04T14:05:38.334Z,6.70
2019-04-04T14:08:08.282Z,6.07
2019-04-04T14:10:41.062Z,6.30
2019-04-04T14:13:14.501Z,6.40
2019-04-04T14:15:46.401Z,7.10
2019-04-04T14:18:38.183Z,6.67
2019-04-04T14:21:03.701Z,6.00
2019-04-04T14:23:30.239Z,6.80
2019-04-04T14:26:01.600Z,5.70
2019-04-04T14:28:31.126Z,6.93
2019-04-04T14:31:00.618Z,6.60
2019-04-04T14:33:30.139Z,6.43
2019-04-04T14:36:00.762Z,6.20
2019-04-04T14:38:30.445Z,7.57
2019-04-04T14:41:10.694Z,6.53
2019-04-04T14:43:35.618Z,6.67
2019-04-04T14:46:07.707Z,6.90
2019-04-04T14:48:42.193Z,6.47
2019-04-04T14:51:11.851Z,6.77
2019-04-04T14:53:41.959Z,7.17
2019-04-04T14:56:12.119Z,7.07
2019-04-04T14:58:41.731Z,6.40
2019-04-04T15:01:14.296Z,7.03
2019-04-04T15:03:44.484Z,6.77
2019-04-04T15:06:14.190Z,6.73
2019-04-04T15:08:44.891Z,6.77
2019-04-04T15:11:23.907Z,6.03
2019-04-04T15:13:48.875Z,6.47
2019-04-04T15:16:18.365Z,6.73
2019-04-04T15:18:48.648Z,7.10
2019-04-04T15:21:20.517Z,7.43
2019-04-04T15:23:50.124Z,7.40
2019-04-04T15:26:21.927Z,6.70
2019-04-04T15:28:52.593Z,6.67
2019-04-04T15:31:25.631Z,7.93
2019-04-04T15:33:55.339Z,6.87
2019-04-04T15:36:26.521Z,7.10
2019-04-04T15:38:58.710Z,6.93
2019-04-04T15:41:36.722Z,10.10
2019-04-04T15:43:59.511Z,9.60
2019-04-04T15:46:29.207Z,10.27
2019-04-04T15:48:58.717Z,8.90
2019-04-04T15:51:28.236Z,7.97
2019-04-04T15:54:00.119Z,15.73
2019-04-04T15:56:29.541Z,7.93
2019-04-04T15:58:59.599Z,59.53
2019-04-04T16:01:29.298Z,42.27
2019-04-04T16:03:58.843Z,10.30
2019-04-04T16:06:28.311Z,12.00
2019-04-04T16:08:59.663Z,8.90
2019-04-04T16:11:29.179Z,11.37
2019-04-04T16:14:02.597Z,8.33
2019-04-04T16:16:32.722Z,7.00
2019-04-04T16:19:02.434Z,9.87
2019-04-04T16:21:34.710Z,7.90
2019-04-04T16:24:04.918Z,7.47
2019-04-04T16:26:35.442Z,8.37
2019-04-04T16:29:24.404Z,7.37
2019-04-04T16:31:53.510Z,7.57
2019-04-04T16:34:23.413Z,8.87
2019-04-04T16:36:52.965Z,8.97
2019-04-04T16:39:22.598Z,11.27
2019-04-04T16:42:01.535Z,11.57
2019-04-04T16:44:24.499Z,10.13
2019-04-04T16:46:54.429Z,11.00
2019-04-04T16:49:26.170Z,9.20
2019-04-04T16:51:57.960Z,10.93
2019-04-04T16:54:27.469Z,17.17
2019-04-04T16:56:58.567Z,18.30
2019-04-04T16:59:28.199Z,11.73
2019-04-04T17:01:59.357Z,7.90
2019-04-04T17:04:29.163Z,10.47
2019-04-04T17:06:59.934Z,9.23
2019-04-04T17:09:29.601Z,10.97
2019-04-04T17:11:59.281Z,12.13
2019-04-04T17:14:30.014Z,10.93
2019-04-04T17:16:59.765Z,13.63
2019-04-04T17:19:29.448Z,17.57
2019-04-04T17:21:59.018Z,12.67
2019-04-04T17:24:28.690Z,18.53
2019-04-04T17:27:00.922Z,20.70
2019-04-04T17:29:30.394Z,15.07
2019-04-04T17:31:59.852Z,18.10
2019-04-04T17:34:28.924Z,30.33
2019-04-04T17:36:58.831Z,19.90
2019-04-04T17:39:31.877Z,28.67
2019-04-04T17:42:01.549Z,16.33
2019-04-04T17:44:31.082Z,16.20
2019-04-04T17:47:03.630Z,26.67
2019-04-04T17:49:35.588Z,40.70
2019-04-04T17:52:07.897Z,68.60
2019-04-04T17:54:37.317Z,26.07
2019-04-04T17:57:07.379Z,36.37
2019-04-04T17:59:43.118Z,27.23
2019-04-04T18:02:08.460Z,18.03
2019-04-04T18:04:47.759Z,18.87
2019-04-04T18:07:11.565Z,13.77
2019-04-04T18:09:45.504Z,11.60
2019-04-04T18:12:16.754Z,10.93
2019-04-04T18:14:46.437Z,12.67
2019-04-04T18:17:15.686Z,11.37
2019-04-04T18:19:45.291Z,16.30
2019-04-04T18:22:14.949Z,17.37
2019-04-04T18:24:44.669Z,23.27
2019-04-04T18:27:14.988Z,17.73
2019-04-04T18:29:47.343Z,23.47
2019-04-04T18:32:17.276Z,17.30
2019-04-04T18:34:47.469Z,12.67
2019-04-04T18:37:17.499Z,11.97
2019-04-04T18:39:47.485Z,19.80
2019-04-04T18:42:17.227Z,21.60
2019-04-04T18:44:51.757Z,17.77
2019-04-04T18:47:21.433Z,14.33
2019-04-04T18:49:51.372Z,19.60
2019-04-04T18:52:21.743Z,11.90
2019-04-04T18:54:51.642Z,12.47
2019-04-04T18:57:21.316Z,13.30
2019-04-04T18:59:50.704Z,12.80
2019-04-04T19:08:00.962Z,43.90
2019-04-04T19:10:32.089Z,71.17
2019-04-04T19:13:05.582Z,34.80
2019-04-04T19:15:33.137Z,40.13
2019-04-04T19:18:04.297Z,61.43
2019-04-04T19:20:34.627Z,25.47
2019-04-04T19:23:04.340Z,25.83
2019-04-04T19:25:34.039Z,34.67
2019-04-04T19:28:03.971Z,35.23
2019-04-04T19:30:33.679Z,14.37
2019-04-04T19:33:05.028Z,14.37
2019-04-04T19:35:37.941Z,14.97
2019-04-04T19:38:08.333Z,13.83
2019-04-04T19:40:38.473Z,10.00
2019-04-04T19:43:18.055Z,10.90
2019-04-04T19:45:41.371Z,11.40
2019-04-04T19:48:11.247Z,12.63
2019-04-04T19:50:41.592Z,13.63
2019-04-04T19:53:11.279Z,16.53
2019-04-04T19:55:42.503Z,17.40
2019-04-04T19:58:15.721Z,17.90
2019-04-04T20:00:46.171Z,18.73
2019-04-04T20:03:16.286Z,20.63
2019-04-04T20:05:46.227Z,23.20
2019-04-04T20:08:16.503Z,30.03
2019-04-04T20:10:46.646Z,28.73
2019-04-04T20:13:16.962Z,29.73
2019-04-04T20:15:47.100Z,23.17
2019-04-04T20:18:20.321Z,28.40
2019-04-04T20:20:49.978Z,25.27
2019-04-04T20:23:19.682Z,23.53
2019-04-04T20:25:49.436Z,30.33
2019-04-04T20:28:19.297Z,24.70
2019-04-04T20:30:48.997Z,44.23
2019-04-04T20:33:19.613Z,29.40
2019-04-04T20:35:50.617Z,25.53
2019-04-04T20:38:20.435Z,21.67
2019-04-04T20:40:49.802Z,21.37
2019-04-04T20:43:19.397Z,16.23
2019-04-04T20:45:48.938Z,16.33
2019-04-04T20:48:18.845Z,17.43
2019-04-04T20:50:53.943Z,21.67
2019-04-04T20:53:23.600Z,17.47
2019-04-04T20:55:53.212Z,19.57
2019-04-04T20:58:22.785Z,23.17
2019-04-04T21:00:51.807Z,16.47
2019-04-04T21:03:20.947Z,18.73
2019-04-04T21:05:50.284Z,21.93
2019-04-04T21:08:19.788Z,24.83
2019-04-04T21:10:49.693Z,30.03
2019-04-04T21:13:19.638Z,18.93
2019-04-04T21:15:49.753Z,16.73
2019-04-04T21:18:23.126Z,17.47
2019-04-04T21:20:52.736Z,16.20
2019-04-04T21:23:23.567Z,17.40
2019-04-04T21:25:53.270Z,19.00
2019-04-04T21:28:23.875Z,18.30
2019-04-04T21:30:53.329Z,16.47
2019-04-04T21:33:29.377Z,17.07
2019-04-04T21:36:00.311Z,15.67
2019-04-04T21:38:29.820Z,16.73
2019-04-04T21:40:59.765Z,17.17
2019-04-04T21:43:29.460Z,17.93
2019-04-04T21:45:59.182Z,18.30
2019-04-04T21:48:30.835Z,16.53
2019-04-04T21:51:00.443Z,17.03
2019-04-04T21:53:30.365Z,17.20
2019-04-04T21:55:59.925Z,16.77
2019-04-04T21:58:29.571Z,16.67
2019-04-04T22:00:59.420Z,17.47
2019-04-04T22:03:36.719Z,16.70
2019-04-04T22:06:06.065Z,17.57
2019-04-04T22:08:35.753Z,17.17
2019-04-04T22:11:05.331Z,16.93
2019-04-04T22:13:34.983Z,17.10
2019-04-04T22:16:04.700Z,17.17
2019-04-04T22:18:37.992Z,16.63
2019-04-04T22:21:09.323Z,16.47
2019-04-04T22:23:38.799Z,17.87
2019-04-04T22:26:12.664Z,16.87
2019-04-04T22:28:45.134Z,16.77
2019-04-04T22:31:17.154Z,16.77
2019-04-04T22:33:47.902Z,16.17
2019-04-04T22:36:19.427Z,16.83
2019-04-04T22:38:49.320Z,27.03
2019-04-04T22:41:19.432Z,18.13
2019-04-04T22:43:48.939Z,17.37
2019-04-04T22:46:18.638Z,18.53
2019-04-04T22:48:48.174Z,17.67
2019-04-04T22:51:20.330Z,17.57
2019-04-04T22:53:50.245Z,16.07
2019-04-04T22:56:19.222Z,16.67
2019-04-04T22:58:48.829Z,16.53
2019-04-04T23:01:18.765Z,17.30
2019-04-04T23:03:48.467Z,17.00
2019-04-04T23:06:18.351Z,16.47
2019-04-04T23:08:49.697Z,15.87
2019-04-04T23:11:19.025Z,15.83
2019-04-04T23:13:48.752Z,17.27
2019-04-04T23:16:18.424Z,17.43
2019-04-04T23:18:52.265Z,17.33
2019-04-04T23:21:21.984Z,18.17
2019-04-04T23:23:51.459Z,18.43
2019-04-04T23:26:22.394Z,17.67
2019-04-04T23:28:55.516Z,19.30
2019-04-04T23:31:25.115Z,17.87
2019-04-04T23:33:55.229Z,20.50
2019-04-04T23:36:34.369Z,20.83
2019-04-04T23:38:56.103Z,20.00
2019-04-04T23:41:25.785Z,18.67
2019-04-04T23:43:55.552Z,17.80
2019-04-04T23:46:25.195Z,19.37
2019-04-04T23:48:55.135Z,18.23
2019-04-04T23:51:24.470Z,17.77
2019-04-04T23:53:55.583Z,18.50
2019-04-04T23:56:28.151Z,18.03
2019-04-04T23:58:57.873Z,18.37
